Time;durP1;ratioP1;P1;durP2;ratioP2;P2;SDS_P1;SDS_P2;PMS_P1;PMS_P2;Temp;Humidity;BMP_temperature;BMP_pressure;BME280_temperature;BME280_humidity;BME280_pressure;Samples;Min_cycle;Max_cycle;Signal;HPM_P1;HPM_P2
2023/08/06 00:01:50;;;;;;;0.00;0.00;;;16.30;99.90;;;;;;5093479;28;20524;-61
2023/08/06 00:04:16;;;;;;;0.00;0.00;;;16.30;99.90;;;;;;5093249;28;20303;-61
2023/08/06 00:06:42;;;;;;;0.00;0.00;;;16.30;99.90;;;;;;5093527;28;20682;-61
2023/08/06 00:09:07;;;;;;;0.00;0.00;;;16.20;99.90;;;;;;5093251;28;20191;-61
2023/08/06 00:11:33;;;;;;;0.00;0.00;;;16.20;99.90;;;;;;5093056;28;20276;-60
2023/08/06 00:13:58;;;;;;;0.00;0.00;;;16.20;99.90;;;;;;5092855;28;20320;-61
2023/08/06 00:16:24;;;;;;;0.00;0.00;;;16.10;99.90;;;;;;5093240;28;20184;-61
2023/08/06 00:18:49;;;;;;;0.00;0.00;;;16.10;99.90;;;;;;5092935;28;20180;-60
2023/08/06 00:21:15;;;;;;;0.00;0.00;;;16.10;99.90;;;;;;5093095;28;20176;-61
2023/08/06 00:23:42;;;;;;;0.00;0.00;;;16.10;99.90;;;;;;5091402;28;20273;-61
2023/08/06 00:26:07;;;;;;;0.00;0.00;;;16.10;99.90;;;;;;5093039;28;20192;-60
2023/08/06 00:28:33;;;;;;;0.00;0.00;;;16.00;99.90;;;;;;5092700;28;20220;-60
2023/08/06 00:30:58;;;;;;;0.00;0.00;;;16.00;99.90;;;;;;5092089;28;20188;-61
2023/08/06 00:33:24;;;;;;;0.00;0.00;;;16.00;99.90;;;;;;5092322;28;20176;-60
2023/08/06 00:35:50;;;;;;;0.00;0.00;;;16.00;99.90;;;;;;5091900;28;20240;-60
2023/08/06 00:38:16;;;;;;;0.00;0.00;;;16.00;99.90;;;;;;5092659;28;20173;-61
2023/08/06 00:40:41;;;;;;;0.00;0.00;;;15.90;99.90;;;;;;5092376;28;20192;-61
2023/08/06 00:43:07;;;;;;;0.00;0.00;;;15.80;99.90;;;;;;5079366;28;20208;-61
2023/08/06 00:45:35;;;;;;;0.00;0.00;;;15.80;99.90;;;;;;5092518;28;20637;-60
2023/08/06 00:48:03;;;;;;;0.05;0.05;;;15.80;99.90;;;;;;5092491;28;20195;-61
2023/08/06 00:50:29;;;;;;;0.00;0.00;;;15.80;99.90;;;;;;5092455;28;20184;-61
2023/08/06 00:52:55;;;;;;;0.00;0.00;;;15.70;99.90;;;;;;5091466;28;20183;-61
2023/08/06 00:55:20;;;;;;;0.00;0.00;;;15.80;99.90;;;;;;5092414;28;20647;-61
2023/08/06 00:57:46;;;;;;;0.00;0.00;;;15.80;99.90;;;;;;5092292;28;20177;-61
2023/08/06 01:00:12;;;;;;;0.00;0.00;;;15.90;99.90;;;;;;5092347;28;20534;-61
2023/08/06 01:02:38;;;;;;;0.00;0.00;;;15.90;99.90;;;;;;5092238;28;20184;-61
2023/08/06 01:05:04;;;;;;;0.00;0.00;;;15.90;99.90;;;;;;5091457;28;20206;-61
2023/08/06 01:07:56;;;;;;;0.10;0.00;;;15.90;99.90;;;;;;5092219;28;20173;-61
2023/08/06 01:10:36;;;;;;;0.03;0.03;;;15.90;99.90;;;;;;5091436;28;20180;-61
2023/08/06 01:13:18;;;;;;;0.00;0.00;;;15.90;99.90;;;;;;5091015;28;20266;-61
2023/08/06 01:15:47;;;;;;;0.00;0.00;;;15.90;99.90;;;;;;5092124;28;20312;-60
2023/08/06 01:18:13;;;;;;;0.00;0.00;;;15.90;99.90;;;;;;5092106;28;20176;-61
2023/08/06 01:20:38;;;;;;;0.00;0.00;;;15.90;99.90;;;;;;5091969;28;20207;-61
2023/08/06 01:23:04;;;;;;;0.00;0.00;;;15.90;99.90;;;;;;5091494;28;20220;-61
2023/08/06 01:25:39;;;;;;;0.00;0.00;;;15.90;99.90;;;;;;5091940;28;20180;-61
2023/08/06 01:28:22;;;;;;;0.00;0.00;;;15.90;99.90;;;;;;5091522;28;20237;-63
2023/08/06 01:30:50;;;;;;;0.00;0.00;;;15.90;99.90;;;;;;5091540;28;20216;-62
2023/08/06 01:33:21;;;;;;;0.00;0.00;;;15.80;99.90;;;;;;5091460;28;20188;-62
2023/08/06 01:35:48;;;;;;;0.00;0.00;;;15.80;99.90;;;;;;5091693;28;20522;-61
2023/08/06 01:38:13;;;;;;;0.00;0.00;;;15.80;99.90;;;;;;5091545;28;20251;-61
2023/08/06 01:40:39;;;;;;;0.08;0.08;;;15.80;99.90;;;;;;5091603;28;20203;-61
2023/08/06 01:43:05;;;;;;;0.00;0.00;;;15.80;99.90;;;;;;5075463;28;20741;-61
2023/08/06 01:45:30;;;;;;;0.00;0.00;;;15.70;99.90;;;;;;5091790;28;20176;-61
2023/08/06 01:47:56;;;;;;;0.00;0.00;;;15.70;99.90;;;;;;5091707;28;20176;-62
2023/08/06 01:50:21;;;;;;;0.00;0.00;;;15.70;99.90;;;;;;5091519;28;20627;-61
2023/08/06 01:52:47;;;;;;;0.00;0.00;;;15.70;99.90;;;;;;5091193;28;20184;-61
2023/08/06 01:55:12;;;;;;;0.00;0.00;;;15.70;99.90;;;;;;5091574;28;20667;-61
2023/08/06 01:57:38;;;;;;;0.00;0.00;;;15.70;99.90;;;;;;5091854;28;20199;-61
2023/08/06 02:00:04;;;;;;;0.00;0.00;;;15.60;99.90;;;;;;5090371;28;20290;-61
2023/08/06 02:02:29;;;;;;;0.00;0.00;;;15.60;99.90;;;;;;5091630;28;20791;-61
2023/08/06 02:04:55;;;;;;;0.00;0.00;;;15.50;99.90;;;;;;5091378;28;20228;-61
2023/08/06 02:07:20;;;;;;;0.00;0.00;;;15.50;99.90;;;;;;5091705;28;20170;-61
2023/08/06 02:09:46;;;;;;;0.00;0.00;;;15.60;99.90;;;;;;5091612;28;20688;-61
2023/08/06 02:12:11;;;;;;;0.00;0.00;;;15.50;99.90;;;;;;5091763;28;20176;-61
2023/08/06 02:14:37;;;;;;;0.00;0.00;;;15.50;99.90;;;;;;5091726;28;20627;-61
2023/08/06 02:17:02;;;;;;;0.00;0.00;;;15.50;99.90;;;;;;5091475;28;20171;-61
2023/08/06 02:19:28;;;;;;;0.00;0.00;;;15.50;99.90;;;;;;5091686;28;20168;-62
2023/08/06 02:21:54;;;;;;;0.08;0.08;;;15.50;99.90;;;;;;5091551;28;20172;-61
2023/08/06 02:24:19;;;;;;;0.00;0.00;;;15.50;99.90;;;;;;5091391;28;20262;-61
2023/08/06 02:26:45;;;;;;;0.00;0.00;;;15.50;99.90;;;;;;5091639;28;20200;-61
2023/08/06 02:29:10;;;;;;;0.00;0.00;;;15.50;99.90;;;;;;5091333;28;20306;-61
2023/08/06 02:31:36;;;;;;;0.00;0.00;;;15.50;99.90;;;;;;5091426;28;20212;-61
2023/08/06 02:34:01;;;;;;;0.00;0.00;;;15.40;99.90;;;;;;5091323;28;20185;-61
2023/08/06 02:36:29;;;;;;;0.00;0.00;;;15.40;99.90;;;;;;5091422;28;20172;-61
2023/08/06 02:38:55;;;;;;;0.00;0.00;;;15.40;99.90;;;;;;5091544;28;20180;-61
2023/08/06 02:41:20;;;;;;;0.00;0.00;;;15.40;99.90;;;;;;5089775;28;20558;-61
2023/08/06 02:43:46;;;;;;;0.00;0.00;;;15.40;99.90;;;;;;5069790;28;20261;-61
2023/08/06 02:46:11;;;;;;;0.00;0.00;;;15.40;99.90;;;;;;5074629;28;20180;-61
2023/08/06 02:48:37;;;;;;;0.00;0.00;;;15.40;99.90;;;;;;5091153;28;20179;-62
2023/08/06 02:51:02;;;;;;;0.00;0.00;;;15.40;99.90;;;;;;5090984;28;20249;-61
2023/08/06 02:53:28;;;;;;;0.00;0.00;;;15.50;99.90;;;;;;5090691;28;20180;-61
2023/08/06 02:55:55;;;;;;;0.00;0.00;;;15.50;99.90;;;;;;5090745;28;20180;-62
2023/08/06 02:58:23;;;;;;;0.00;0.00;;;15.50;99.90;;;;;;5089445;28;20168;-61
2023/08/06 03:01:06;;;;;;;0.00;0.00;;;15.40;99.90;;;;;;5090928;28;20172;-62
2023/08/06 03:03:33;;;;;;;0.00;0.00;;;15.40;99.90;;;;;;5090950;28;20222;-62
2023/08/06 03:05:59;;;;;;;0.00;0.00;;;15.40;99.90;;;;;;5090963;28;20184;-62
2023/08/06 03:08:24;;;;;;;0.00;0.00;;;15.40;99.90;;;;;;5091037;28;20932;-62
2023/08/06 03:10:50;;;;;;;0.00;0.00;;;15.40;99.90;;;;;;5090905;28;20165;-61
2023/08/06 03:13:16;;;;;;;0.00;0.00;;;15.30;99.90;;;;;;5090894;28;20266;-61
2023/08/06 03:15:42;;;;;;;0.00;0.00;;;15.30;99.90;;;;;;5089734;28;20176;-61
2023/08/06 03:18:08;;;;;;;0.00;0.00;;;15.30;99.90;;;;;;5090940;28;20181;-61
2023/08/06 03:20:34;;;;;;;0.00;0.00;;;15.20;99.90;;;;;;5090878;28;20518;-61
2023/08/06 03:22:59;;;;;;;0.00;0.00;;;15.20;99.90;;;;;;5090617;28;20207;-61
2023/08/06 03:25:25;;;;;;;0.00;0.00;;;15.20;99.90;;;;;;5090697;28;20184;-61
2023/08/06 03:27:50;;;;;;;0.00;0.00;;;15.20;99.90;;;;;;5090680;28;20327;-61
2023/08/06 03:30:16;;;;;;;0.10;0.10;;;15.20;99.90;;;;;;5090507;28;20314;-61
2023/08/06 03:32:41;;;;;;;0.00;0.00;;;15.20;99.90;;;;;;5090658;28;20176;-61
2023/08/06 03:35:07;;;;;;;0.00;0.00;;;15.20;99.90;;;;;;5094229;28;20214;-62
2023/08/06 03:37:33;;;;;;;0.15;0.15;;;15.20;99.90;;;;;;5094503;28;20172;-61
2023/08/06 03:39:58;;;;;;;0.00;0.00;;;15.20;99.90;;;;;;5094334;28;20236;-65
2023/08/06 03:42:24;;;;;;;0.00;0.00;;;15.20;99.90;;;;;;5090759;28;20263;-61
2023/08/06 03:44:49;;;;;;;0.00;0.00;;;15.20;99.90;;;;;;5094238;28;20208;-61
2023/08/06 03:47:15;;;;;;;0.00;0.00;;;15.10;99.90;;;;;;5094126;28;20176;-61
2023/08/06 03:49:40;;;;;;;0.00;0.00;;;15.10;99.90;;;;;;5093980;28;20175;-61
2023/08/06 03:52:06;;;;;;;0.00;0.00;;;15.00;99.90;;;;;;5093903;28;20173;-61
2023/08/06 03:54:32;;;;;;;0.00;0.00;;;15.00;99.90;;;;;;5093840;28;20183;-61
2023/08/06 03:56:57;;;;;;;0.00;0.00;;;14.90;99.90;;;;;;5093656;28;20194;-61
2023/08/06 03:59:23;;;;;;;0.00;0.00;;;15.00;99.90;;;;;;5093468;28;20233;-61
2023/08/06 04:01:48;;;;;;;0.00;0.00;;;14.90;99.90;;;;;;5093714;28;20730;-61
2023/08/06 04:04:14;;;;;;;0.00;0.00;;;14.90;99.90;;;;;;5093661;28;20223;-61
2023/08/06 04:06:39;;;;;;;0.00;0.00;;;14.90;99.90;;;;;;5093607;28;20168;-61
2023/08/06 04:09:05;;;;;;;0.00;0.00;;;14.90;99.90;;;;;;5093554;28;20211;-61
2023/08/06 04:11:30;;;;;;;0.00;0.00;;;14.80;99.90;;;;;;5093876;28;20178;-61
2023/08/06 04:13:56;;;;;;;0.00;0.00;;;14.90;99.90;;;;;;5093447;28;20214;-61
2023/08/06 04:16:21;;;;;;;0.00;0.00;;;14.80;99.90;;;;;;5093245;28;20621;-61
2023/08/06 04:18:47;;;;;;;0.00;0.00;;;14.80;99.90;;;;;;5093706;28;20587;-61
2023/08/06 04:21:12;;;;;;;0.00;0.00;;;14.80;99.90;;;;;;5093536;28;20280;-61
2023/08/06 04:23:38;;;;;;;0.00;0.00;;;14.80;99.90;;;;;;5093137;28;20322;-61
2023/08/06 04:26:04;;;;;;;0.00;0.00;;;14.70;99.90;;;;;;5091552;28;20176;-60
2023/08/06 04:28:30;;;;;;;0.00;0.00;;;14.70;99.90;;;;;;5092710;28;20585;-61
2023/08/06 04:30:55;;;;;;;0.00;0.00;;;14.70;99.90;;;;;;5092986;28;20180;-60
2023/08/06 04:33:21;;;;;;;0.00;0.00;;;14.60;99.90;;;;;;5092893;28;20584;-61
2023/08/06 04:35:46;;;;;;;0.00;0.00;;;14.60;99.90;;;;;;5092377;28;20689;-60
2023/08/06 04:38:12;;;;;;;0.00;0.00;;;14.60;99.90;;;;;;5092554;28;20644;-60
2023/08/06 04:40:38;;;;;;;0.00;0.00;;;14.50;99.90;;;;;;5092828;28;20188;-60
2023/08/06 04:43:03;;;;;;;0.00;0.00;;;14.50;99.90;;;;;;5089245;28;20196;-61
2023/08/06 04:45:29;;;;;;;0.00;0.00;;;14.50;99.90;;;;;;5091707;28;20245;-60
2023/08/06 04:47:54;;;;;;;0.00;0.00;;;14.40;99.90;;;;;;5093013;28;20172;-61
2023/08/06 04:50:20;;;;;;;0.00;0.00;;;14.40;99.90;;;;;;5092863;28;20183;-60
2023/08/06 04:52:46;;;;;;;0.00;0.00;;;14.30;99.90;;;;;;5093006;28;20188;-60
2023/08/06 04:55:11;;;;;;;0.00;0.00;;;14.30;99.90;;;;;;5092847;28;20184;-60
2023/08/06 04:57:37;;;;;;;0.00;0.00;;;14.30;99.90;;;;;;5092925;28;20182;-60
2023/08/06 05:00:02;;;;;;;0.00;0.00;;;14.30;99.90;;;;;;5092871;28;20180;-61
2023/08/06 05:02:28;;;;;;;0.00;0.00;;;14.30;99.90;;;;;;5092564;28;20172;-61
2023/08/06 05:04:54;;;;;;;0.00;0.00;;;14.30;99.90;;;;;;5092810;28;20216;-60
2023/08/06 05:07:19;;;;;;;0.00;0.00;;;14.30;99.90;;;;;;5092530;28;20180;-60
2023/08/06 05:09:45;;;;;;;0.00;0.00;;;14.30;99.90;;;;;;5091570;28;20250;-61
2023/08/06 05:12:10;;;;;;;0.00;0.00;;;14.30;99.90;;;;;;5092659;28;20191;-61
2023/08/06 05:14:36;;;;;;;0.00;0.00;;;14.30;99.90;;;;;;5091270;28;20199;-61
2023/08/06 05:17:04;;;;;;;0.00;0.00;;;14.20;99.90;;;;;;5091899;28;20172;-61
2023/08/06 05:19:29;;;;;;;0.00;0.00;;;14.30;99.90;;;;;;5092118;28;20168;-61
2023/08/06 05:21:55;;;;;;;0.00;0.00;;;14.30;99.90;;;;;;5092114;28;20176;-61
2023/08/06 05:24:20;;;;;;;0.00;0.00;;;14.30;99.90;;;;;;5091698;28;20626;-61
2023/08/06 05:26:47;;;;;;;0.00;0.00;;;14.30;99.90;;;;;;5092112;28;20643;-61
2023/08/06 05:29:13;;;;;;;0.00;0.00;;;14.30;99.90;;;;;;5091364;28;20263;-61
2023/08/06 05:31:38;;;;;;;0.00;0.00;;;14.40;99.90;;;;;;5091532;28;20663;-62
2023/08/06 05:34:04;;;;;;;0.00;0.00;;;14.30;99.90;;;;;;5091564;28;20241;-61
2023/08/06 05:36:29;;;;;;;0.00;0.00;;;14.40;99.90;;;;;;5091645;28;20172;-61
2023/08/06 05:38:55;;;;;;;0.10;0.10;;;14.40;99.90;;;;;;5091278;28;20195;-61
2023/08/06 05:41:20;;;;;;;0.00;0.00;;;14.50;99.90;;;;;;5091097;28;20692;-61
2023/08/06 05:43:46;;;;;;;0.00;0.00;;;14.50;99.90;;;;;;5090280;28;20220;-61
2023/08/06 05:46:11;;;;;;;0.00;0.00;;;14.50;99.90;;;;;;5090688;28;20180;-61
2023/08/06 05:48:37;;;;;;;0.00;0.00;;;14.60;99.90;;;;;;5090910;28;20263;-61
2023/08/06 05:51:03;;;;;;;0.00;0.00;;;14.60;99.90;;;;;;5090820;28;20547;-61
2023/08/06 05:53:28;;;;;;;0.00;0.00;;;14.60;99.90;;;;;;5089335;28;20255;-60
2023/08/06 05:55:54;;;;;;;0.00;0.00;;;14.60;99.90;;;;;;5090731;28;20528;-61
2023/08/06 05:58:24;;;;;;;0.00;0.00;;;14.70;99.90;;;;;;5091073;28;20171;-61
2023/08/06 06:00:49;;;;;;;0.00;0.00;;;14.80;99.90;;;;;;5091123;28;20175;-60
2023/08/06 06:03:15;;;;;;;0.00;0.00;;;14.90;99.90;;;;;;5090925;28;20192;-60
2023/08/06 06:05:40;;;;;;;0.00;0.00;;;14.90;99.90;;;;;;5090968;28;20195;-60
2023/08/06 06:08:06;;;;;;;0.00;0.00;;;14.90;99.90;;;;;;5089837;28;20207;-60
2023/08/06 06:10:31;;;;;;;0.00;0.00;;;14.90;99.90;;;;;;5090929;28;20172;-60
2023/08/06 06:12:57;;;;;;;0.00;0.00;;;14.90;99.90;;;;;;5091018;28;20196;-60
2023/08/06 06:15:22;;;;;;;0.00;0.00;;;14.90;99.90;;;;;;5090908;28;20180;-60
2023/08/06 06:17:48;;;;;;;0.00;0.00;;;14.90;99.90;;;;;;5091007;28;20184;-60
2023/08/06 06:20:13;;;;;;;0.00;0.00;;;14.90;99.90;;;;;;5090854;28;20179;-60
2023/08/06 06:22:39;;;;;;;0.00;0.00;;;14.80;99.90;;;;;;5090874;28;20187;-60
2023/08/06 06:25:05;;;;;;;0.00;0.00;;;14.70;99.90;;;;;;5090747;28;20237;-60
2023/08/06 06:27:31;;;;;;;0.00;0.00;;;14.70;99.90;;;;;;5090817;28;20582;-61
2023/08/06 06:29:56;;;;;;;0.00;0.00;;;14.60;99.90;;;;;;5090844;28;20275;-61
2023/08/06 06:32:22;;;;;;;0.00;0.00;;;14.60;99.90;;;;;;5091118;28;20186;-60
2023/08/06 06:34:47;;;;;;;0.00;0.00;;;14.60;99.90;;;;;;5090930;28;20538;-61
2023/08/06 06:37:13;;;;;;;0.00;0.00;;;14.50;99.90;;;;;;5090770;28;20176;-61
2023/08/06 06:39:39;;;;;;;0.00;0.00;;;14.60;99.90;;;;;;5091026;28;20180;-61
2023/08/06 06:42:05;;;;;;;0.00;0.00;;;14.60;99.90;;;;;;5091177;28;20176;-61
2023/08/06 06:44:30;;;;;;;0.00;0.00;;;14.70;99.90;;;;;;5090860;28;20289;-61
2023/08/06 06:46:56;;;;;;;0.00;0.00;;;14.70;99.90;;;;;;5091383;28;20168;-61
2023/08/06 06:49:21;;;;;;;0.00;0.00;;;14.70;99.90;;;;;;5091141;28;20176;-61
2023/08/06 06:51:47;;;;;;;0.00;0.00;;;14.70;99.90;;;;;;5091230;28;20187;-61
2023/08/06 06:54:12;;;;;;;0.00;0.00;;;14.70;99.90;;;;;;5085451;28;20188;-61
2023/08/06 06:56:38;;;;;;;0.20;0.20;;;14.70;99.90;;;;;;5090881;28;20666;-61
2023/08/06 06:59:03;;;;;;;0.00;0.00;;;14.60;99.90;;;;;;5091189;28;20180;-62
2023/08/06 07:01:29;;;;;;;0.00;0.00;;;14.90;99.90;;;;;;5089319;28;20176;-61
2023/08/06 07:03:54;;;;;;;0.00;0.00;;;15.40;99.90;;;;;;5090784;28;20212;-61
2023/08/06 07:06:20;;;;;;;0.00;0.00;;;15.70;99.90;;;;;;5090848;28;20176;-62
2023/08/06 07:08:45;;;;;;;0.00;0.00;;;16.20;99.90;;;;;;5092223;28;20238;-62
2023/08/06 07:11:11;;;;;;;0.00;0.00;;;16.70;99.90;;;;;;5094692;28;20183;-62
2023/08/06 07:13:37;;;;;;;0.00;0.00;;;16.80;99.90;;;;;;5094057;28;20172;-62
2023/08/06 07:16:03;;;;;;;0.00;0.00;;;16.70;99.90;;;;;;5093027;28;20176;-62
2023/08/06 07:18:29;;;;;;;0.00;0.00;;;16.80;99.90;;;;;;5094184;28;20183;-61
2023/08/06 07:20:55;;;;;;;0.00;0.00;;;16.80;99.90;;;;;;5097837;28;20667;-61
2023/08/06 07:23:21;;;;;;;0.00;0.00;;;16.60;99.90;;;;;;5094340;28;20314;-61
2023/08/06 07:25:48;;;;;;;0.00;0.00;;;16.50;99.90;;;;;;5094455;28;20219;-61
2023/08/06 07:28:14;;;;;;;0.00;0.00;;;16.60;99.90;;;;;;5093901;28;20234;-61
2023/08/06 07:30:41;;;;;;;0.52;0.52;;;16.40;99.90;;;;;;5094475;28;20172;-60
2023/08/06 07:33:06;;;;;;;0.00;0.00;;;16.30;99.90;;;;;;5094485;28;20222;-61
2023/08/06 07:35:33;;;;;;;0.00;0.00;;;16.40;99.90;;;;;;5093381;28;20204;-61
2023/08/06 07:37:59;;;;;;;0.10;0.10;;;16.70;99.90;;;;;;5094301;28;20253;-60
2023/08/06 07:40:25;;;;;;;0.00;0.00;;;16.90;99.90;;;;;;5094367;28;20176;-60
2023/08/06 07:42:50;;;;;;;0.00;0.00;;;17.00;99.90;;;;;;5094336;28;20179;-59
2023/08/06 07:45:16;;;;;;;0.00;0.00;;;17.10;99.90;;;;;;5094258;28;20186;-59
2023/08/06 07:47:42;;;;;;;0.00;0.00;;;17.00;99.90;;;;;;5093847;28;20227;-58
2023/08/06 07:50:09;;;;;;;0.00;0.00;;;17.00;99.90;;;;;;5094118;28;20750;-59
2023/08/06 07:52:34;;;;;;;0.00;0.00;;;16.70;99.90;;;;;;5093875;28;20226;-60
2023/08/06 07:55:01;;;;;;;0.00;0.00;;;16.50;99.90;;;;;;5093396;28;20176;-60
2023/08/06 07:57:27;;;;;;;0.00;0.00;;;16.50;99.90;;;;;;5093831;28;20868;-62
2023/08/06 07:59:53;;;;;;;0.00;0.00;;;16.50;99.90;;;;;;5093754;28;20263;-60
2023/08/06 08:02:19;;;;;;;0.00;0.00;;;16.50;99.90;;;;;;5093142;28;20229;-60
2023/08/06 08:04:47;;;;;;;0.00;0.00;;;16.50;99.90;;;;;;5093656;28;20243;-60
2023/08/06 08:07:12;;;;;;;0.00;0.00;;;16.60;99.90;;;;;;5093454;28;20275;-61
2023/08/06 08:09:38;;;;;;;0.00;0.00;;;16.50;99.90;;;;;;5092583;28;20283;-61
2023/08/06 08:12:04;;;;;;;0.00;0.00;;;16.60;99.90;;;;;;5093577;28;20181;-61
2023/08/06 08:14:35;;;;;;;0.00;0.00;;;16.50;99.90;;;;;;5093038;28;20212;-61
2023/08/06 08:17:02;;;;;;;0.00;0.00;;;16.40;99.90;;;;;;5092809;28;20184;-60
2023/08/06 08:19:28;;;;;;;0.00;0.00;;;16.60;99.90;;;;;;5092791;28;20270;-62
2023/08/06 08:21:54;;;;;;;0.00;0.00;;;16.70;99.90;;;;;;5093285;28;20176;-61
2023/08/06 08:24:20;;;;;;;0.00;0.00;;;17.10;99.90;;;;;;5092999;28;20211;-61
2023/08/06 08:26:45;;;;;;;0.00;0.00;;;17.20;99.90;;;;;;5093435;28;20172;-65
2023/08/06 08:29:11;;;;;;;0.00;0.00;;;17.10;99.90;;;;;;5091169;28;20522;-64
2023/08/06 08:31:39;;;;;;;0.00;0.00;;;16.90;99.90;;;;;;5093044;28;20647;-63
2023/08/06 08:34:05;;;;;;;0.00;0.00;;;16.90;99.90;;;;;;5093301;28;20172;-62
2023/08/06 08:36:31;;;;;;;0.00;0.00;;;16.80;99.90;;;;;;5093460;28;20293;-61
2023/08/06 08:38:57;;;;;;;0.00;0.00;;;16.70;99.90;;;;;;5093218;28;20275;-61
2023/08/06 08:41:23;;;;;;;0.00;0.00;;;16.80;99.90;;;;;;5098033;28;20175;-61
2023/08/06 08:43:51;;;;;;;0.00;0.00;;;17.10;99.90;;;;;;5099554;28;20669;-61
2023/08/06 08:46:18;;;;;;;0.00;0.00;;;17.10;99.90;;;;;;5092997;28;20187;-61
2023/08/06 08:48:44;;;;;;;0.00;0.00;;;17.00;99.90;;;;;;5092651;28;20651;-61
2023/08/06 08:51:11;;;;;;;0.00;0.00;;;17.30;99.90;;;;;;5093346;28;20184;-61
2023/08/06 08:53:39;;;;;;;0.00;0.00;;;17.10;99.90;;;;;;5091475;28;20183;-61
2023/08/06 08:56:05;;;;;;;0.00;0.00;;;17.00;99.90;;;;;;5089026;28;20180;-61
2023/08/06 08:58:31;;;;;;;0.00;0.00;;;17.10;99.90;;;;;;5088328;28;20241;-60
2023/08/06 09:00:57;;;;;;;0.00;0.00;;;17.10;99.90;;;;;;5092616;28;20644;-60
2023/08/06 09:03:22;;;;;;;0.00;0.00;;;17.10;99.90;;;;;;5092297;28;20216;-60
2023/08/06 09:05:53;;;;;;;0.00;0.00;;;17.10;99.90;;;;;;5092157;28;20450;-58
2023/08/06 09:08:23;;;;;;;0.00;0.00;;;17.10;99.90;;;;;;5091919;28;21113;-59
2023/08/06 09:10:49;;;;;;;0.00;0.00;;;17.20;99.90;;;;;;5092151;28;20176;-59
2023/08/06 09:13:15;;;;;;;0.00;0.00;;;17.20;99.90;;;;;;5091935;28;20172;-61
2023/08/06 09:15:41;;;;;;;0.00;0.00;;;16.90;99.90;;;;;;5092443;28;20179;-60
2023/08/06 09:18:11;;;;;;;0.00;0.00;;;16.70;99.90;;;;;;5092379;28;20168;-59
2023/08/06 09:20:40;;;;;;;0.00;0.00;;;16.40;99.90;;;;;;5092394;28;20225;-59
2023/08/06 09:23:10;;;;;;;0.00;0.00;;;16.20;99.90;;;;;;5092128;28;20543;-59
2023/08/06 09:25:39;;;;;;;0.00;0.00;;;16.30;99.90;;;;;;5092006;28;20216;-59
2023/08/06 09:28:04;;;;;;;0.00;0.00;;;16.40;99.90;;;;;;5092056;28;20212;-59
2023/08/06 09:30:32;;;;;;;0.00;0.00;;;16.50;99.90;;;;;;5091409;28;20192;-59
2023/08/06 09:32:57;;;;;;;0.00;0.00;;;16.50;99.90;;;;;;5091617;28;20180;-59
2023/08/06 09:35:23;;;;;;;0.00;0.00;;;16.40;99.90;;;;;;5091585;28;20190;-59
2023/08/06 09:37:49;;;;;;;0.00;0.00;;;16.50;99.90;;;;;;5091976;28;20261;-59
2023/08/06 09:40:30;;;;;;;0.00;0.00;;;16.50;99.90;;;;;;5091132;28;20234;-59
2023/08/06 09:42:56;;;;;;;0.00;0.00;;;16.60;99.90;;;;;;5091688;28;20168;-59
2023/08/06 09:45:23;;;;;;;0.00;0.00;;;16.60;99.90;;;;;;5091377;28;20530;-60
2023/08/06 09:47:49;;;;;;;0.00;0.00;;;16.60;99.90;;;;;;5091668;28;20176;-60
2023/08/06 09:50:18;;;;;;;0.00;0.00;;;16.60;99.90;;;;;;5091452;28;20542;-59
2023/08/06 09:52:44;;;;;;;0.00;0.00;;;16.60;99.90;;;;;;5091335;28;20183;-60
2023/08/06 09:55:12;;;;;;;0.00;0.00;;;16.50;99.90;;;;;;5091648;28;20180;-60
2023/08/06 09:57:38;;;;;;;0.00;0.00;;;16.40;99.90;;;;;;5091719;28;20180;-61
2023/08/06 10:00:04;;;;;;;0.00;0.00;;;16.40;99.90;;;;;;5091144;28;20166;-61
2023/08/06 10:02:33;;;;;;;0.00;0.00;;;16.20;99.90;;;;;;5091457;28;20180;-61
2023/08/06 10:04:59;;;;;;;0.00;0.00;;;16.20;99.90;;;;;;5091402;28;20211;-61
2023/08/06 10:07:24;;;;;;;0.00;0.00;;;16.30;99.90;;;;;;5090846;28;20589;-61
2023/08/06 10:09:50;;;;;;;0.00;0.00;;;16.30;99.90;;;;;;5091689;28;20212;-61
2023/08/06 10:12:18;;;;;;;0.00;0.00;;;16.30;99.90;;;;;;5091476;28;20176;-61
2023/08/06 10:14:45;;;;;;;0.00;0.00;;;16.30;99.90;;;;;;5091405;28;20627;-60
2023/08/06 10:17:11;;;;;;;0.00;0.00;;;16.10;99.90;;;;;;5091279;28;20191;-60
2023/08/06 10:19:37;;;;;;;0.00;0.00;;;15.90;99.90;;;;;;5091418;28;20589;-59
2023/08/06 10:22:17;;;;;;;0.00;0.00;;;15.70;99.90;;;;;;5090990;28;20169;-60
2023/08/06 10:24:51;;;;;;;0.00;0.00;;;15.50;99.90;;;;;;5091150;28;20219;-59
2023/08/06 10:27:30;;;;;;;0.00;0.00;;;15.50;99.90;;;;;;5090965;28;20175;-60
2023/08/06 10:30:16;;;;;;;0.00;0.00;;;15.40;99.90;;;;;;5091162;28;20192;-60
2023/08/06 10:32:49;;;;;;;0.00;0.00;;;15.40;99.90;;;;;;5090652;28;20225;-59
2023/08/06 10:35:45;;;;;;;0.00;0.00;;;15.40;99.90;;;;;;5087226;28;20176;-59
2023/08/06 10:38:18;;;;;;;0.00;0.00;;;15.50;99.90;;;;;;5095164;28;20318;-60
2023/08/06 10:41:04;;;;;;;0.00;0.00;;;15.40;99.90;;;;;;5090684;28;20210;-60
2023/08/06 10:43:34;;;;;;;0.00;0.00;;;15.40;99.90;;;;;;5093201;28;20612;-60
2023/08/06 10:46:04;;;;;;;0.00;0.00;;;15.50;99.90;;;;;;5095057;28;20209;-60
2023/08/06 10:48:45;;;;;;;0.00;0.00;;;15.50;99.90;;;;;;5094405;28;20176;-59
2023/08/06 10:51:13;;;;;;;0.00;0.00;;;15.50;99.90;;;;;;5095270;28;20210;-60
2023/08/06 10:53:42;;;;;;;0.00;0.00;;;15.50;99.90;;;;;;5095177;28;20451;-59
2023/08/06 10:56:18;;;;;;;0.00;0.00;;;15.50;99.90;;;;;;5095005;28;20259;-60
2023/08/06 10:58:45;;;;;;;0.00;0.00;;;15.50;99.90;;;;;;5095324;28;20200;-59
2023/08/06 11:01:11;;;;;;;0.47;0.15;;;15.50;99.90;;;;;;5095074;28;20258;-59
2023/08/06 11:03:38;;;;;;;0.00;0.00;;;15.40;99.90;;;;;;5095073;28;20311;-60
2023/08/06 11:06:05;;;;;;;0.00;0.00;;;15.40;99.90;;;;;;5094920;28;20176;-60
2023/08/06 11:08:35;;;;;;;0.00;0.00;;;15.30;99.90;;;;;;5094729;28;20639;-59
2023/08/06 11:11:12;;;;;;;0.00;0.00;;;15.20;99.90;;;;;;5094925;28;20183;-59
2023/08/06 11:13:38;;;;;;;0.00;0.00;;;15.10;99.90;;;;;;5094770;28;20275;-59
2023/08/06 11:16:05;;;;;;;0.00;0.00;;;15.10;99.90;;;;;;5094391;28;20255;-60
2023/08/06 11:18:32;;;;;;;0.00;0.00;;;15.10;99.90;;;;;;5095777;28;20184;-59
2023/08/06 11:21:01;;;;;;;0.00;0.00;;;15.10;99.90;;;;;;5094043;28;20659;-60
2023/08/06 11:23:29;;;;;;;0.00;0.00;;;15.10;99.90;;;;;;5094480;28;20561;-60
2023/08/06 11:25:56;;;;;;;0.00;0.00;;;15.00;99.90;;;;;;5094558;28;20172;-59
2023/08/06 11:28:22;;;;;;;0.00;0.00;;;15.00;99.90;;;;;;5094231;28;20216;-59
2023/08/06 11:30:48;;;;;;;0.00;0.00;;;15.00;99.90;;;;;;5093905;28;20188;-59
2023/08/06 11:33:14;;;;;;;0.00;0.00;;;14.90;99.90;;;;;;5094176;28;20188;-58
2023/08/06 11:35:40;;;;;;;0.00;0.00;;;14.90;99.90;;;;;;5094299;28;20183;-59
2023/08/06 11:38:06;;;;;;;0.00;0.00;;;14.80;99.90;;;;;;5093973;28;20191;-59
2023/08/06 11:40:33;;;;;;;0.00;0.00;;;14.80;99.90;;;;;;5094426;28;20262;-59
2023/08/06 11:42:58;;;;;;;0.00;0.00;;;14.80;99.90;;;;;;5093984;28;21006;-60
2023/08/06 11:45:24;;;;;;;0.10;0.10;;;14.80;99.90;;;;;;5094053;28;20180;-59
2023/08/06 11:47:52;;;;;;;0.00;0.00;;;14.60;99.90;;;;;;5071088;28;20536;-59
2023/08/06 11:50:25;;;;;;;0.00;0.00;;;14.70;99.90;;;;;;5073802;28;20192;-59
2023/08/06 11:53:00;;;;;;;0.00;0.00;;;14.70;99.90;;;;;;5073826;28;20169;-59
2023/08/06 11:55:26;;;;;;;0.00;0.00;;;14.70;99.90;;;;;;5084643;28;20226;-60
2023/08/06 11:57:51;;;;;;;0.00;0.00;;;14.70;99.90;;;;;;5094094;28;20610;-59
2023/08/06 12:00:19;;;;;;;0.00;0.00;;;14.70;99.90;;;;;;5093900;28;20245;-58
2023/08/06 12:02:46;;;;;;;0.00;0.00;;;14.70;99.90;;;;;;5093641;28;20220;-59
2023/08/06 12:05:16;;;;;;;0.00;0.00;;;14.80;99.90;;;;;;5093306;28;20180;-59
2023/08/06 12:07:45;;;;;;;0.00;0.00;;;14.80;99.90;;;;;;5093017;28;20180;-61
2023/08/06 12:10:12;;;;;;;0.00;0.00;;;14.70;99.90;;;;;;5093492;28;20535;-59
2023/08/06 12:12:38;;;;;;;0.00;0.00;;;14.80;99.90;;;;;;5093702;28;20206;-62
2023/08/06 12:15:06;;;;;;;0.00;0.00;;;14.80;99.90;;;;;;5093565;28;20288;-61
2023/08/06 12:17:31;;;;;;;0.20;0.20;;;14.80;99.90;;;;;;5093220;28;20184;-60
2023/08/06 12:19:57;;;;;;;0.00;0.00;;;14.90;99.90;;;;;;5093460;28;20707;-61
2023/08/06 12:22:23;;;;;;;0.00;0.00;;;14.90;99.90;;;;;;5093246;28;20191;-62
2023/08/06 12:24:48;;;;;;;0.00;0.00;;;15.00;99.90;;;;;;5093183;28;20179;-61
2023/08/06 12:27:16;;;;;;;0.00;0.00;;;14.90;99.90;;;;;;5092854;28;20192;-59
2023/08/06 12:29:45;;;;;;;0.00;0.00;;;14.90;99.90;;;;;;5092774;28;20241;-61
2023/08/06 12:32:12;;;;;;;0.00;0.00;;;14.90;99.90;;;;;;5093312;28;20213;-59
2023/08/06 12:34:39;;;;;;;0.00;0.00;;;14.90;99.90;;;;;;5093433;28;20282;-62
2023/08/06 12:37:05;;;;;;;0.00;0.00;;;15.00;99.90;;;;;;5093250;28;20173;-60
2023/08/06 12:39:31;;;;;;;0.00;0.00;;;15.00;99.90;;;;;;5093165;28;20183;-61
2023/08/06 12:41:57;;;;;;;0.10;0.10;;;15.00;99.90;;;;;;5093135;28;20177;-62
2023/08/06 12:44:24;;;;;;;0.00;0.00;;;15.00;99.90;;;;;;5092869;28;20266;-60
2023/08/06 12:46:50;;;;;;;0.00;0.00;;;15.20;99.90;;;;;;5092558;28;20694;-60